createdAt,value
2023-02-13T00:04:35.512Z,100.00
2023-02-13T00:07:53.624Z,100.00
2023-02-13T00:12:41.737Z,100.00
2023-02-13T00:16:41.315Z,100.00
2023-02-13T00:20:46.255Z,100.00
2023-02-13T00:24:18.307Z,100.00
2023-02-13T00:29:34.294Z,100.00
2023-02-13T00:33:29.403Z,100.00
2023-02-13T00:37:27.109Z,100.00
2023-02-13T00:41:24.209Z,100.00
2023-02-13T00:45:19.284Z,100.00
2023-02-13T00:49:17.602Z,100.00
2023-02-13T00:53:15.775Z,99.97
2023-02-13T00:57:11.029Z,99.93
2023-02-13T01:01:27.194Z,99.81
2023-02-13T01:04:48.057Z,99.71
2023-02-13T01:08:43.486Z,99.25
2023-02-13T01:11:30.407Z,99.59
2023-02-13T01:14:16.719Z,99.62
2023-02-13T01:17:03.337Z,99.22
2023-02-13T01:19:50.267Z,98.55
2023-02-13T01:24:16.315Z,97.72
2023-02-13T01:27:35.156Z,98.02
2023-02-13T01:31:38.110Z,98.80
2023-02-13T01:35:35.452Z,99.04
2023-02-13T01:39:33.136Z,99.31
2023-02-13T01:43:45.476Z,99.52
2023-02-13T01:48:10.789Z,99.93
2023-02-13T01:51:43.664Z,99.76
2023-02-13T01:55:50.630Z,99.67
2023-02-13T01:59:50.703Z,99.48
2023-02-13T02:03:52.431Z,99.19
2023-02-13T02:07:50.250Z,99.15
2023-02-13T02:11:59.475Z,98.77
2023-02-13T02:15:56.644Z,99.15
2023-02-13T02:20:03.008Z,98.99
2023-02-13T02:24:12.133Z,98.99
2023-02-13T02:28:53.624Z,98.60
2023-02-13T02:33:01.121Z,98.46
2023-02-13T02:37:17.887Z,98.66
2023-02-13T02:41:41.784Z,98.27
2023-02-13T02:46:11.060Z,98.22
2023-02-13T02:50:33.112Z,98.27
2023-02-13T02:54:59.051Z,98.10
2023-02-13T02:59:22.562Z,98.05
2023-02-13T03:03:43.767Z,97.91
2023-02-13T03:08:07.307Z,97.85
2023-02-13T03:12:24.353Z,97.94
2023-02-13T03:16:44.643Z,98.03
2023-02-13T03:21:14.449Z,98.24
2023-02-13T03:25:37.451Z,97.85
2023-02-13T03:30:00.773Z,97.69
2023-02-13T03:34:07.048Z,97.77
2023-02-13T03:38:34.048Z,97.84
2023-02-13T03:42:39.482Z,97.84
2023-02-13T03:46:43.281Z,97.70
2023-02-13T03:50:43.153Z,97.95
2023-02-13T03:55:07.736Z,97.92
2023-02-13T03:59:16.188Z,97.96
2023-02-13T04:03:36.072Z,97.71
2023-02-13T04:07:32.235Z,97.81
2023-02-13T04:11:35.330Z,97.55
2023-02-13T04:16:03.115Z,97.26
2023-02-13T04:20:00.774Z,97.48
2023-02-13T04:23:55.708Z,97.51
2023-02-13T04:26:46.879Z,97.81
2023-02-13T04:33:48.387Z,97.38
2023-02-13T04:39:11.763Z,96.94
2023-02-13T04:43:09.679Z,96.92
2023-02-13T04:47:05.036Z,96.99
2023-02-13T04:51:03.376Z,97.37
2023-02-13T04:54:58.572Z,97.07
2023-02-13T04:58:56.196Z,96.91
2023-02-13T05:03:12.639Z,96.97
2023-02-13T05:06:47.735Z,97.18
2023-02-13T05:10:07.433Z,96.92
2023-02-13T05:14:04.548Z,96.93
2023-02-13T05:16:51.485Z,97.00
2023-02-13T05:19:38.166Z,96.76
2023-02-13T05:22:43.652Z,96.38
2023-02-13T05:25:30.365Z,95.93
2023-02-13T05:30:50.128Z,95.91
2023-02-13T05:34:47.400Z,96.05
2023-02-13T05:38:44.890Z,96.23
2023-02-13T05:42:41.723Z,96.11
2023-02-13T05:45:28.740Z,96.16
2023-02-13T05:48:15.110Z,95.69
2023-02-13T05:51:02.010Z,95.47
2023-02-13T05:53:48.499Z,95.24
2023-02-13T05:56:35.100Z,95.10
2023-02-13T05:59:23.746Z,95.21
2023-02-13T06:02:11.009Z,94.76
2023-02-13T06:04:57.398Z,94.71
2023-02-13T06:09:32.056Z,94.52
2023-02-13T06:13:28.270Z,94.85
2023-02-13T06:16:15.905Z,95.18
2023-02-13T06:19:08.588Z,94.67
2023-02-13T06:21:55.641Z,94.54
2023-02-13T06:25:10.189Z,94.33
2023-02-13T06:27:57.591Z,94.11
2023-02-13T06:30:44.956Z,94.09
2023-02-13T06:33:32.584Z,93.56
2023-02-13T06:36:19.677Z,93.37
2023-02-13T06:39:06.725Z,93.24
2023-02-13T06:42:45.556Z,93.18
2023-02-13T06:45:32.013Z,93.17
2023-02-13T06:48:18.511Z,93.10
2023-02-13T06:51:14.020Z,92.85
2023-02-13T06:55:12.507Z,93.01
2023-02-13T06:59:08.021Z,93.26
2023-02-13T07:03:06.673Z,93.79
2023-02-13T07:07:04.082Z,93.33
2023-02-13T07:11:02.260Z,93.13
2023-02-13T07:15:00.921Z,93.07
2023-02-13T07:18:55.834Z,92.70
2023-02-13T07:21:42.560Z,92.63
2023-02-13T07:24:29.016Z,92.62
2023-02-13T07:27:15.775Z,92.49
2023-02-13T07:30:02.540Z,92.09
2023-02-13T07:32:49.475Z,91.69
2023-02-13T07:35:37.798Z,91.32
2023-02-13T07:38:24.527Z,91.16
2023-02-13T07:41:11.142Z,91.28
2023-02-13T07:43:57.978Z,90.56
2023-02-13T07:46:44.571Z,89.67
2023-02-13T07:49:31.059Z,89.18
2023-02-13T07:53:36.062Z,88.39
2023-02-13T07:57:04.682Z,87.83
2023-02-13T07:59:51.463Z,87.99
2023-02-13T08:02:42.739Z,88.39
2023-02-13T08:05:32.438Z,88.33
2023-02-13T08:08:18.884Z,87.80
2023-02-13T08:11:31.492Z,87.92
2023-02-13T08:14:18.214Z,89.22
2023-02-13T08:17:05.022Z,89.97
2023-02-13T08:21:17.694Z,91.24
2023-02-13T08:25:13.312Z,91.90
2023-02-13T08:29:12.570Z,91.83
2023-02-13T08:44:02.536Z,90.98
2023-02-13T08:47:07.683Z,91.08
2023-02-13T09:01:30.413Z,86.00
2023-02-13T09:23:16.512Z,84.61
2023-02-13T09:37:42.269Z,84.46
2023-02-13T09:40:56.528Z,84.64
2023-02-13T09:43:49.508Z,84.78
2023-02-13T09:46:39.082Z,84.75
2023-02-13T09:49:30.544Z,85.05
2023-02-13T09:54:59.235Z,86.08
2023-02-13T09:58:45.836Z,86.06
2023-02-13T10:13:22.837Z,84.14
2023-02-13T10:16:51.065Z,84.03
2023-02-13T10:20:57.582Z,84.48
2023-02-13T10:35:01.002Z,83.17
2023-02-13T10:37:59.952Z,84.01
2023-02-13T10:42:09.423Z,85.33
2023-02-13T10:45:25.544Z,85.84
2023-02-13T10:48:46.325Z,86.78
2023-02-13T10:51:40.046Z,87.03
2023-02-13T10:56:06.877Z,87.81
2023-02-13T11:09:59.300Z,86.98
2023-02-13T11:27:13.079Z,85.54
2023-02-13T11:30:34.427Z,84.99
2023-02-13T11:44:40.686Z,85.21
2023-02-13T11:47:38.918Z,85.16
2023-02-13T11:50:32.606Z,86.38
2023-02-13T11:53:27.159Z,87.15
2023-02-13T11:57:03.995Z,87.02
2023-02-13T12:42:09.459Z,83.14
2023-02-13T12:56:40.498Z,83.43
2023-02-13T13:10:28.423Z,84.20
2023-02-13T13:14:00.906Z,83.73
2023-02-13T13:18:05.307Z,84.96
2023-02-13T13:22:28.493Z,84.97
2023-02-13T13:26:40.549Z,84.14
2023-02-13T13:30:58.164Z,82.61
2023-02-13T13:34:22.857Z,82.53
2023-02-13T13:38:42.232Z,81.55
2023-02-13T13:42:47.842Z,82.76
2023-02-13T13:47:00.336Z,82.51
2023-02-13T13:50:30.379Z,82.25
2023-02-13T13:54:34.960Z,82.91
2023-02-13T13:58:47.548Z,82.75
2023-02-13T14:18:13.735Z,84.88
2023-02-13T14:32:36.740Z,85.18
2023-02-13T14:36:03.994Z,85.47
2023-02-13T14:39:21.902Z,85.62
2023-02-13T14:42:27.985Z,85.51
2023-02-13T14:45:27.356Z,85.28
2023-02-13T14:48:14.592Z,85.36
2023-02-13T14:52:03.208Z,84.95
2023-02-13T14:55:38.131Z,85.51
2023-02-13T15:00:04.281Z,85.80
2023-02-13T15:55:31.830Z,82.50
2023-02-13T16:09:32.635Z,82.23
2023-02-13T16:23:07.374Z,81.63
2023-02-13T16:26:04.106Z,81.84
2023-02-13T17:16:56.392Z,79.55
2023-02-13T17:30:52.399Z,78.97
2023-02-13T17:34:19.774Z,78.83
2023-02-13T17:37:32.273Z,78.98
2023-02-13T17:40:20.629Z,79.29
2023-02-13T17:43:30.451Z,78.80
2023-02-13T18:01:32.990Z,77.49
2023-02-13T18:16:15.457Z,76.77
2023-02-13T18:19:01.003Z,77.08
2023-02-13T18:21:46.129Z,76.96
2023-02-13T18:24:32.659Z,77.03
2023-02-13T18:34:57.463Z,77.02
2023-02-13T18:37:44.072Z,77.35
2023-02-13T18:40:30.560Z,76.39
2023-02-13T18:43:16.905Z,76.05
2023-02-13T18:46:04.866Z,76.10
2023-02-13T18:50:11.868Z,75.62
2023-02-13T18:54:09.303Z,76.33
2023-02-13T18:58:07.675Z,76.60
2023-02-13T19:02:23.936Z,76.65
2023-02-13T19:05:43.388Z,77.29
2023-02-13T19:08:30.322Z,77.40
2023-02-13T19:11:31.409Z,77.29
2023-02-13T19:14:17.744Z,77.05
2023-02-13T19:17:04.683Z,76.80
2023-02-13T19:19:51.784Z,77.02
2023-02-13T19:33:25.962Z,76.36
2023-02-13T19:36:53.841Z,77.06
2023-02-13T19:50:26.842Z,76.32
2023-02-13T19:53:25.901Z,76.49
2023-02-13T19:57:23.087Z,77.34
2023-02-13T20:26:06.010Z,76.37
2023-02-13T20:53:17.067Z,76.80
2023-02-13T21:01:41.508Z,78.15
2023-02-13T21:34:59.343Z,78.75
2023-02-13T21:49:39.185Z,78.73
2023-02-13T22:08:15.740Z,79.14
2023-02-13T22:11:27.388Z,79.96
2023-02-13T22:16:41.582Z,80.57
2023-02-13T22:20:40.834Z,81.00
2023-02-13T22:24:37.903Z,81.06
2023-02-13T22:28:34.216Z,81.33
2023-02-13T22:32:32.691Z,81.46
2023-02-13T22:36:31.542Z,81.18
2023-02-13T22:40:26.586Z,81.31
2023-02-13T22:44:24.965Z,81.66
2023-02-13T22:59:11.310Z,80.60
2023-02-13T23:02:06.234Z,80.62
2023-02-13T23:06:04.460Z,81.25
2023-02-13T23:10:04.642Z,81.59
2023-02-13T23:14:02.699Z,81.27
2023-02-13T23:18:15.050Z,81.78
2023-02-13T23:32:38.513Z,81.09
2023-02-13T23:35:34.402Z,81.58
2023-02-13T23:39:43.224Z,81.39
2023-02-13T23:43:10.028Z,81.65
2023-02-13T23:47:06.580Z,82.19
2023-02-13T23:51:04.988Z,82.13
2023-02-13T23:55:00.169Z,82.30
2023-02-13T23:59:16.152Z,82.01
